Pipersville, Pennsylvania
Current Conditions -  °F | °C
As of 7:54 PM on Thursday 27 Nov 2014 (Local Time) from KDYL Reporting Station
Clear Clear  
Wind Chill: 30°   Ceiling: Unl
Heat Index: 30°   Visibility: 10mi
Dew Point: 27°   Wind: 3mph
Humidity: 88%   Direction: 280°W
Pressure: 30.07"   Gusts: NA
Location:  40.38°N, 75.14°W
Report Text: KDYL 280054Z AUTO 28003KT 10SM CLR M01/M03 A3007 RMK AO2 SLP190 T10111028 $
Loading
Personal Weather Stations






























Interactive Weather Map New forecast layout! Learn more

10-Day Weather Forecast

Advertisements
Track Severe Weather on mobile